sensor_id;sensor_type;location;lat;lon;timestamp;P1;durP1;ratioP1;P2;durP2;ratioP2
16612;SDS011;8419;52.358;9.752;2023-01-08T00:00:35;2.10;;;1.67;;
16612;SDS011;8419;52.358;9.752;2023-01-08T00:03:21;4.20;;;1.80;;
16612;SDS011;8419;52.358;9.752;2023-01-08T00:06:08;2.47;;;1.70;;
16612;SDS011;8419;52.358;9.752;2023-01-08T00:08:56;3.90;;;2.58;;
16612;SDS011;8419;52.358;9.752;2023-01-08T00:11:41;2.62;;;1.58;;
16612;SDS011;8419;52.358;9.752;2023-01-08T00:14:27;3.15;;;1.90;;
16612;SDS011;8419;52.358;9.752;2023-01-08T00:17:14;3.58;;;1.90;;
16612;SDS011;8419;52.358;9.752;2023-01-08T00:19:59;2.03;;;1.73;;
16612;SDS011;8419;52.358;9.752;2023-01-08T00:22:47;2.15;;;1.83;;
16612;SDS011;8419;52.358;9.752;2023-01-08T00:25:33;2.37;;;1.77;;
16612;SDS011;8419;52.358;9.752;2023-01-08T00:28:18;2.55;;;2.00;;
16612;SDS011;8419;52.358;9.752;2023-01-08T00:31:04;3.17;;;1.85;;
16612;SDS011;8419;52.358;9.752;2023-01-08T00:33:51;3.00;;;2.40;;
16612;SDS011;8419;52.358;9.752;2023-01-08T00:36:36;2.62;;;2.03;;
16612;SDS011;8419;52.358;9.752;2023-01-08T00:39:23;2.65;;;1.80;;
16612;SDS011;8419;52.358;9.752;2023-01-08T00:42:08;2.55;;;1.70;;
16612;SDS011;8419;52.358;9.752;2023-01-08T00:44:53;3.03;;;1.73;;
16612;SDS011;8419;52.358;9.752;2023-01-08T00:47:39;2.03;;;1.70;;
16612;SDS011;8419;52.358;9.752;2023-01-08T00:50:25;5.32;;;2.00;;
16612;SDS011;8419;52.358;9.752;2023-01-08T00:53:11;2.83;;;1.77;;
16612;SDS011;8419;52.358;9.752;2023-01-08T00:55:59;3.08;;;2.00;;
16612;SDS011;8419;52.358;9.752;2023-01-08T00:58:45;2.03;;;1.85;;
16612;SDS011;8419;52.358;9.752;2023-01-08T01:01:30;2.60;;;1.83;;
16612;SDS011;8419;52.358;9.752;2023-01-08T01:04:16;2.75;;;2.10;;
16612;SDS011;8419;52.358;9.752;2023-01-08T01:07:01;2.58;;;1.80;;
16612;SDS011;8419;52.358;9.752;2023-01-08T01:09:47;3.10;;;2.12;;
16612;SDS011;8419;52.358;9.752;2023-01-08T01:12:32;4.22;;;1.95;;
16612;SDS011;8419;52.358;9.752;2023-01-08T01:15:20;2.30;;;1.90;;
16612;SDS011;8419;52.358;9.752;2023-01-08T01:18:07;3.92;;;2.00;;
16612;SDS011;8419;52.358;9.752;2023-01-08T01:20:53;2.22;;;1.70;;
16612;SDS011;8419;52.358;9.752;2023-01-08T01:23:39;2.45;;;1.98;;
16612;SDS011;8419;52.358;9.752;2023-01-08T01:26:24;2.30;;;1.87;;
16612;SDS011;8419;52.358;9.752;2023-01-08T01:29:11;2.58;;;2.03;;
16612;SDS011;8419;52.358;9.752;2023-01-08T01:31:56;2.42;;;1.92;;
16612;SDS011;8419;52.358;9.752;2023-01-08T01:34:42;2.67;;;1.98;;
16612;SDS011;8419;52.358;9.752;2023-01-08T01:37:27;3.17;;;1.87;;
16612;SDS011;8419;52.358;9.752;2023-01-08T01:40:13;3.08;;;1.95;;
16612;SDS011;8419;52.358;9.752;2023-01-08T01:42:59;2.40;;;1.98;;
16612;SDS011;8419;52.358;9.752;2023-01-08T01:45:44;5.22;;;2.25;;
16612;SDS011;8419;52.358;9.752;2023-01-08T01:48:30;3.17;;;2.15;;
16612;SDS011;8419;52.358;9.752;2023-01-08T01:51:16;2.40;;;2.03;;
16612;SDS011;8419;52.358;9.752;2023-01-08T01:54:03;5.40;;;1.98;;
16612;SDS011;8419;52.358;9.752;2023-01-08T01:56:52;2.22;;;2.00;;
16612;SDS011;8419;52.358;9.752;2023-01-08T01:59:39;3.00;;;2.28;;
16612;SDS011;8419;52.358;9.752;2023-01-08T02:02:25;2.87;;;1.80;;
16612;SDS011;8419;52.358;9.752;2023-01-08T02:05:10;2.70;;;2.00;;
16612;SDS011;8419;52.358;9.752;2023-01-08T02:07:57;2.35;;;1.92;;
16612;SDS011;8419;52.358;9.752;2023-01-08T02:10:50;3.70;;;2.03;;
16612;SDS011;8419;52.358;9.752;2023-01-08T02:13:40;4.12;;;2.40;;
16612;SDS011;8419;52.358;9.752;2023-01-08T02:16:33;2.40;;;1.92;;
16612;SDS011;8419;52.358;9.752;2023-01-08T02:19:29;3.22;;;2.45;;
16612;SDS011;8419;52.358;9.752;2023-01-08T02:22:28;3.42;;;2.15;;
16612;SDS011;8419;52.358;9.752;2023-01-08T02:25:28;2.80;;;2.17;;
16612;SDS011;8419;52.358;9.752;2023-01-08T02:28:21;2.12;;;1.92;;
16612;SDS011;8419;52.358;9.752;2023-01-08T02:31:09;2.35;;;1.80;;
16612;SDS011;8419;52.358;9.752;2023-01-08T02:33:56;2.97;;;2.05;;
16612;SDS011;8419;52.358;9.752;2023-01-08T02:36:42;2.92;;;2.05;;
16612;SDS011;8419;52.358;9.752;2023-01-08T02:39:32;2.42;;;2.00;;
16612;SDS011;8419;52.358;9.752;2023-01-08T02:42:31;2.22;;;1.90;;
16612;SDS011;8419;52.358;9.752;2023-01-08T02:45:27;2.37;;;1.95;;
16612;SDS011;8419;52.358;9.752;2023-01-08T02:48:21;3.12;;;2.03;;
16612;SDS011;8419;52.358;9.752;2023-01-08T02:51:16;2.55;;;1.92;;
16612;SDS011;8419;52.358;9.752;2023-01-08T02:54:08;3.35;;;2.22;;
16612;SDS011;8419;52.358;9.752;2023-01-08T02:56:58;2.08;;;1.67;;
16612;SDS011;8419;52.358;9.752;2023-01-08T02:59:47;3.87;;;2.20;;
16612;SDS011;8419;52.358;9.752;2023-01-08T03:02:35;1.85;;;1.65;;
16612;SDS011;8419;52.358;9.752;2023-01-08T03:05:25;2.53;;;1.98;;
16612;SDS011;8419;52.358;9.752;2023-01-08T03:08:12;2.65;;;1.90;;
16612;SDS011;8419;52.358;9.752;2023-01-08T03:10:59;2.05;;;1.55;;
16612;SDS011;8419;52.358;9.752;2023-01-08T03:13:49;2.08;;;1.75;;
16612;SDS011;8419;52.358;9.752;2023-01-08T03:16:44;2.25;;;1.83;;
16612;SDS011;8419;52.358;9.752;2023-01-08T03:19:34;3.17;;;1.67;;
16612;SDS011;8419;52.358;9.752;2023-01-08T03:22:24;2.25;;;1.90;;
16612;SDS011;8419;52.358;9.752;2023-01-08T03:25:11;2.72;;;1.90;;
16612;SDS011;8419;52.358;9.752;2023-01-08T03:27:58;2.28;;;1.87;;
16612;SDS011;8419;52.358;9.752;2023-01-08T03:30:46;2.53;;;2.10;;
16612;SDS011;8419;52.358;9.752;2023-01-08T03:33:34;4.10;;;1.80;;
16612;SDS011;8419;52.358;9.752;2023-01-08T03:36:23;2.70;;;2.25;;
16612;SDS011;8419;52.358;9.752;2023-01-08T03:39:13;3.95;;;2.08;;
16612;SDS011;8419;52.358;9.752;2023-01-08T03:42:04;3.35;;;1.98;;
16612;SDS011;8419;52.358;9.752;2023-01-08T03:44:52;2.92;;;2.22;;
16612;SDS011;8419;52.358;9.752;2023-01-08T03:47:38;3.17;;;2.28;;
16612;SDS011;8419;52.358;9.752;2023-01-08T03:50:26;2.22;;;1.80;;
16612;SDS011;8419;52.358;9.752;2023-01-08T03:53:14;2.65;;;1.90;;
16612;SDS011;8419;52.358;9.752;2023-01-08T03:56:00;2.25;;;1.85;;
16612;SDS011;8419;52.358;9.752;2023-01-08T03:58:45;2.67;;;2.10;;
16612;SDS011;8419;52.358;9.752;2023-01-08T04:01:31;2.83;;;2.22;;
16612;SDS011;8419;52.358;9.752;2023-01-08T04:04:16;3.20;;;1.95;;
16612;SDS011;8419;52.358;9.752;2023-01-08T04:07:02;2.33;;;1.70;;
16612;SDS011;8419;52.358;9.752;2023-01-08T04:09:48;2.45;;;2.10;;
16612;SDS011;8419;52.358;9.752;2023-01-08T04:12:33;3.95;;;2.58;;
16612;SDS011;8419;52.358;9.752;2023-01-08T04:15:18;2.78;;;1.90;;
16612;SDS011;8419;52.358;9.752;2023-01-08T04:18:04;2.15;;;1.83;;
16612;SDS011;8419;52.358;9.752;2023-01-08T04:20:49;2.83;;;2.20;;
16612;SDS011;8419;52.358;9.752;2023-01-08T04:23:35;3.72;;;1.85;;
16612;SDS011;8419;52.358;9.752;2023-01-08T04:26:21;2.80;;;1.92;;
16612;SDS011;8419;52.358;9.752;2023-01-08T04:29:06;4.28;;;2.22;;
16612;SDS011;8419;52.358;9.752;2023-01-08T04:31:52;1.90;;;1.70;;
16612;SDS011;8419;52.358;9.752;2023-01-08T04:34:37;2.35;;;1.90;;
16612;SDS011;8419;52.358;9.752;2023-01-08T04:37:22;2.03;;;1.62;;
16612;SDS011;8419;52.358;9.752;2023-01-08T04:40:09;4.12;;;2.30;;
16612;SDS011;8419;52.358;9.752;2023-01-08T04:42:56;3.35;;;1.98;;
16612;SDS011;8419;52.358;9.752;2023-01-08T04:45:41;2.58;;;1.90;;
16612;SDS011;8419;52.358;9.752;2023-01-08T04:48:27;2.03;;;1.83;;
16612;SDS011;8419;52.358;9.752;2023-01-08T04:51:13;3.12;;;1.92;;
16612;SDS011;8419;52.358;9.752;2023-01-08T04:53:58;2.33;;;2.00;;
16612;SDS011;8419;52.358;9.752;2023-01-08T04:56:44;4.60;;;2.20;;
16612;SDS011;8419;52.358;9.752;2023-01-08T04:59:29;2.03;;;1.85;;
16612;SDS011;8419;52.358;9.752;2023-01-08T05:02:14;2.87;;;1.90;;
16612;SDS011;8419;52.358;9.752;2023-01-08T05:05:00;2.78;;;1.98;;
16612;SDS011;8419;52.358;9.752;2023-01-08T05:07:46;2.80;;;2.50;;
16612;SDS011;8419;52.358;9.752;2023-01-08T05:10:31;3.15;;;1.73;;
16612;SDS011;8419;52.358;9.752;2023-01-08T05:13:16;2.15;;;1.80;;
16612;SDS011;8419;52.358;9.752;2023-01-08T05:16:03;3.42;;;1.95;;
16612;SDS011;8419;52.358;9.752;2023-01-08T05:18:49;4.75;;;2.00;;
16612;SDS011;8419;52.358;9.752;2023-01-08T05:21:35;3.00;;;2.12;;
16612;SDS011;8419;52.358;9.752;2023-01-08T05:24:21;3.65;;;1.75;;
16612;SDS011;8419;52.358;9.752;2023-01-08T05:27:07;2.20;;;2.00;;
16612;SDS011;8419;52.358;9.752;2023-01-08T05:29:53;3.05;;;2.50;;
16612;SDS011;8419;52.358;9.752;2023-01-08T05:32:39;3.90;;;2.03;;
16612;SDS011;8419;52.358;9.752;2023-01-08T05:35:24;2.53;;;2.08;;
16612;SDS011;8419;52.358;9.752;2023-01-08T05:38:09;2.35;;;2.15;;
16612;SDS011;8419;52.358;9.752;2023-01-08T05:40:55;3.62;;;2.00;;
16612;SDS011;8419;52.358;9.752;2023-01-08T05:43:40;2.62;;;2.03;;
16612;SDS011;8419;52.358;9.752;2023-01-08T05:46:26;2.87;;;2.10;;
16612;SDS011;8419;52.358;9.752;2023-01-08T05:49:11;2.72;;;2.03;;
16612;SDS011;8419;52.358;9.752;2023-01-08T05:51:57;4.68;;;2.25;;
16612;SDS011;8419;52.358;9.752;2023-01-08T05:54:43;3.42;;;2.75;;
16612;SDS011;8419;52.358;9.752;2023-01-08T05:57:28;2.55;;;2.22;;
16612;SDS011;8419;52.358;9.752;2023-01-08T06:00:15;3.03;;;2.45;;
16612;SDS011;8419;52.358;9.752;2023-01-08T06:03:00;2.78;;;2.40;;
16612;SDS011;8419;52.358;9.752;2023-01-08T06:05:46;3.80;;;2.28;;
16612;SDS011;8419;52.358;9.752;2023-01-08T06:08:32;3.05;;;2.37;;
16612;SDS011;8419;52.358;9.752;2023-01-08T06:11:17;5.90;;;2.53;;
16612;SDS011;8419;52.358;9.752;2023-01-08T06:14:03;2.58;;;2.20;;
16612;SDS011;8419;52.358;9.752;2023-01-08T06:16:48;2.85;;;2.45;;
16612;SDS011;8419;52.358;9.752;2023-01-08T06:19:33;5.25;;;3.00;;
16612;SDS011;8419;52.358;9.752;2023-01-08T06:22:18;3.25;;;2.72;;
16612;SDS011;8419;52.358;9.752;2023-01-08T06:25:05;2.83;;;2.50;;
16612;SDS011;8419;52.358;9.752;2023-01-08T06:27:51;3.15;;;2.30;;
16612;SDS011;8419;52.358;9.752;2023-01-08T06:30:36;2.80;;;2.50;;
16612;SDS011;8419;52.358;9.752;2023-01-08T06:33:22;3.00;;;2.50;;
16612;SDS011;8419;52.358;9.752;2023-01-08T06:36:10;2.92;;;2.40;;
16612;SDS011;8419;52.358;9.752;2023-01-08T06:38:55;3.85;;;2.53;;
16612;SDS011;8419;52.358;9.752;2023-01-08T06:41:41;4.20;;;2.80;;
16612;SDS011;8419;52.358;9.752;2023-01-08T06:44:27;4.30;;;2.67;;
16612;SDS011;8419;52.358;9.752;2023-01-08T06:47:13;7.25;;;2.92;;
16612;SDS011;8419;52.358;9.752;2023-01-08T06:49:59;2.78;;;2.53;;
16612;SDS011;8419;52.358;9.752;2023-01-08T06:52:50;2.67;;;2.28;;
16612;SDS011;8419;52.358;9.752;2023-01-08T06:55:37;2.87;;;2.55;;
16612;SDS011;8419;52.358;9.752;2023-01-08T06:58:23;6.75;;;2.90;;
16612;SDS011;8419;52.358;9.752;2023-01-08T07:01:12;3.20;;;2.35;;
16612;SDS011;8419;52.358;9.752;2023-01-08T07:03:58;2.58;;;2.05;;
16612;SDS011;8419;52.358;9.752;2023-01-08T07:06:44;3.28;;;2.10;;
16612;SDS011;8419;52.358;9.752;2023-01-08T07:09:31;3.85;;;2.08;;
16612;SDS011;8419;52.358;9.752;2023-01-08T07:12:17;3.20;;;2.15;;
16612;SDS011;8419;52.358;9.752;2023-01-08T07:15:05;2.97;;;2.15;;
16612;SDS011;8419;52.358;9.752;2023-01-08T07:17:52;4.00;;;2.30;;
16612;SDS011;8419;52.358;9.752;2023-01-08T07:20:37;3.90;;;2.33;;
16612;SDS011;8419;52.358;9.752;2023-01-08T07:23:23;3.83;;;2.58;;
16612;SDS011;8419;52.358;9.752;2023-01-08T07:26:09;4.80;;;2.47;;
16612;SDS011;8419;52.358;9.752;2023-01-08T07:28:55;3.08;;;2.47;;
16612;SDS011;8419;52.358;9.752;2023-01-08T07:31:40;3.22;;;2.45;;
16612;SDS011;8419;52.358;9.752;2023-01-08T07:34:25;4.93;;;2.70;;
16612;SDS011;8419;52.358;9.752;2023-01-08T07:37:11;4.47;;;2.80;;
16612;SDS011;8419;52.358;9.752;2023-01-08T07:39:57;3.83;;;2.85;;
16612;SDS011;8419;52.358;9.752;2023-01-08T07:42:42;3.00;;;2.70;;
16612;SDS011;8419;52.358;9.752;2023-01-08T07:45:29;3.78;;;2.35;;
16612;SDS011;8419;52.358;9.752;2023-01-08T07:48:15;3.10;;;2.60;;
16612;SDS011;8419;52.358;9.752;2023-01-08T07:51:01;3.20;;;2.90;;
16612;SDS011;8419;52.358;9.752;2023-01-08T07:53:47;2.78;;;2.45;;
16612;SDS011;8419;52.358;9.752;2023-01-08T07:56:34;3.28;;;2.42;;
16612;SDS011;8419;52.358;9.752;2023-01-08T07:59:19;3.30;;;2.58;;
16612;SDS011;8419;52.358;9.752;2023-01-08T08:02:05;3.47;;;2.45;;
16612;SDS011;8419;52.358;9.752;2023-01-08T08:04:51;3.50;;;2.33;;
16612;SDS011;8419;52.358;9.752;2023-01-08T08:07:36;2.67;;;2.40;;
16612;SDS011;8419;52.358;9.752;2023-01-08T08:10:22;3.03;;;2.40;;
16612;SDS011;8419;52.358;9.752;2023-01-08T08:13:08;2.40;;;2.20;;
16612;SDS011;8419;52.358;9.752;2023-01-08T08:16:00;3.00;;;2.47;;
16612;SDS011;8419;52.358;9.752;2023-01-08T08:18:46;3.40;;;2.40;;
16612;SDS011;8419;52.358;9.752;2023-01-08T08:21:32;2.80;;;2.20;;
16612;SDS011;8419;52.358;9.752;2023-01-08T08:24:17;3.40;;;1.92;;
16612;SDS011;8419;52.358;9.752;2023-01-08T08:27:02;4.28;;;2.70;;
16612;SDS011;8419;52.358;9.752;2023-01-08T08:29:48;3.10;;;2.28;;
16612;SDS011;8419;52.358;9.752;2023-01-08T08:32:34;2.67;;;2.10;;
16612;SDS011;8419;52.358;9.752;2023-01-08T08:35:19;4.35;;;2.47;;
16612;SDS011;8419;52.358;9.752;2023-01-08T08:38:05;3.45;;;2.70;;
16612;SDS011;8419;52.358;9.752;2023-01-08T08:40:51;3.08;;;2.20;;
16612;SDS011;8419;52.358;9.752;2023-01-08T08:43:37;3.47;;;2.42;;
16612;SDS011;8419;52.358;9.752;2023-01-08T08:46:22;4.90;;;2.55;;
16612;SDS011;8419;52.358;9.752;2023-01-08T08:49:08;3.47;;;2.30;;
16612;SDS011;8419;52.358;9.752;2023-01-08T08:51:54;2.12;;;1.87;;
16612;SDS011;8419;52.358;9.752;2023-01-08T08:54:39;2.75;;;2.03;;
16612;SDS011;8419;52.358;9.752;2023-01-08T08:57:25;3.47;;;2.60;;
16612;SDS011;8419;52.358;9.752;2023-01-08T09:00:12;2.20;;;1.98;;
16612;SDS011;8419;52.358;9.752;2023-01-08T09:02:59;2.00;;;1.80;;
16612;SDS011;8419;52.358;9.752;2023-01-08T09:05:45;2.53;;;2.03;;
16612;SDS011;8419;52.358;9.752;2023-01-08T09:08:30;2.58;;;2.15;;
16612;SDS011;8419;52.358;9.752;2023-01-08T09:11:16;2.40;;;1.67;;
16612;SDS011;8419;52.358;9.752;2023-01-08T09:14:01;2.42;;;2.03;;
16612;SDS011;8419;52.358;9.752;2023-01-08T09:16:47;2.75;;;2.05;;
16612;SDS011;8419;52.358;9.752;2023-01-08T09:19:32;1.90;;;1.70;;
16612;SDS011;8419;52.358;9.752;2023-01-08T09:22:18;2.75;;;1.80;;
16612;SDS011;8419;52.358;9.752;2023-01-08T09:25:04;3.33;;;2.35;;
16612;SDS011;8419;52.358;9.752;2023-01-08T09:27:57;2.20;;;1.95;;
16612;SDS011;8419;52.358;9.752;2023-01-08T09:30:43;2.40;;;1.92;;
16612;SDS011;8419;52.358;9.752;2023-01-08T09:33:29;2.25;;;2.05;;
16612;SDS011;8419;52.358;9.752;2023-01-08T09:36:15;3.60;;;2.20;;
16612;SDS011;8419;52.358;9.752;2023-01-08T09:39:00;2.87;;;1.60;;
16612;SDS011;8419;52.358;9.752;2023-01-08T09:41:46;2.00;;;1.80;;
16612;SDS011;8419;52.358;9.752;2023-01-08T09:44:34;4.85;;;1.45;;
16612;SDS011;8419;52.358;9.752;2023-01-08T09:47:25;2.30;;;1.50;;
16612;SDS011;8419;52.358;9.752;2023-01-08T09:50:12;1.83;;;1.20;;
16612;SDS011;8419;52.358;9.752;2023-01-08T09:52:59;1.60;;;1.40;;
16612;SDS011;8419;52.358;9.752;2023-01-08T09:55:47;1.30;;;1.20;;
16612;SDS011;8419;52.358;9.752;2023-01-08T09:58:39;1.60;;;1.35;;
16612;SDS011;8419;52.358;9.752;2023-01-08T10:01:30;1.25;;;1.15;;
16612;SDS011;8419;52.358;9.752;2023-01-08T10:04:20;1.48;;;1.37;;
16612;SDS011;8419;52.358;9.752;2023-01-08T10:07:10;1.65;;;1.20;;
16612;SDS011;8419;52.358;9.752;2023-01-08T10:10:01;1.27;;;1.10;;
16612;SDS011;8419;52.358;9.752;2023-01-08T10:12:47;2.20;;;1.25;;
16612;SDS011;8419;52.358;9.752;2023-01-08T10:15:33;1.42;;;1.10;;
16612;SDS011;8419;52.358;9.752;2023-01-08T10:18:19;1.67;;;1.20;;
16612;SDS011;8419;52.358;9.752;2023-01-08T10:21:09;1.30;;;1.20;;
16612;SDS011;8419;52.358;9.752;2023-01-08T10:23:58;1.10;;;1.00;;
16612;SDS011;8419;52.358;9.752;2023-01-08T10:26:45;1.40;;;1.30;;
16612;SDS011;8419;52.358;9.752;2023-01-08T10:29:31;1.10;;;1.00;;
16612;SDS011;8419;52.358;9.752;2023-01-08T10:32:18;1.00;;;0.90;;
16612;SDS011;8419;52.358;9.752;2023-01-08T10:35:14;0.93;;;0.80;;
16612;SDS011;8419;52.358;9.752;2023-01-08T10:38:02;1.75;;;0.88;;
16612;SDS011;8419;52.358;9.752;2023-01-08T10:40:48;1.12;;;1.00;;
16612;SDS011;8419;52.358;9.752;2023-01-08T10:43:35;0.95;;;0.88;;
16612;SDS011;8419;52.358;9.752;2023-01-08T10:46:29;3.42;;;1.17;;
16612;SDS011;8419;52.358;9.752;2023-01-08T10:49:21;1.50;;;0.90;;
16612;SDS011;8419;52.358;9.752;2023-01-08T10:52:24;0.70;;;0.70;;
16612;SDS011;8419;52.358;9.752;2023-01-08T10:55:19;1.35;;;0.80;;
16612;SDS011;8419;52.358;9.752;2023-01-08T10:58:12;0.75;;;0.65;;
16612;SDS011;8419;52.358;9.752;2023-01-08T11:01:07;1.27;;;0.70;;
16612;SDS011;8419;52.358;9.752;2023-01-08T11:03:56;0.85;;;0.65;;
16612;SDS011;8419;52.358;9.752;2023-01-08T11:06:45;0.82;;;0.75;;
16612;SDS011;8419;52.358;9.752;2023-01-08T11:09:32;0.75;;;0.75;;
16612;SDS011;8419;52.358;9.752;2023-01-08T11:12:33;1.08;;;0.90;;
16612;SDS011;8419;52.358;9.752;2023-01-08T11:15:40;1.15;;;0.68;;
16612;SDS011;8419;52.358;9.752;2023-01-08T11:18:27;2.78;;;0.70;;
16612;SDS011;8419;52.358;9.752;2023-01-08T11:21:17;0.70;;;0.70;;
16612;SDS011;8419;52.358;9.752;2023-01-08T11:24:14;1.58;;;0.70;;
16612;SDS011;8419;52.358;9.752;2023-01-08T11:27:05;1.83;;;0.60;;
16612;SDS011;8419;52.358;9.752;2023-01-08T11:29:56;0.80;;;0.60;;
16612;SDS011;8419;52.358;9.752;2023-01-08T11:32:50;0.90;;;0.60;;
16612;SDS011;8419;52.358;9.752;2023-01-08T11:35:39;0.50;;;0.50;;
16612;SDS011;8419;52.358;9.752;2023-01-08T11:38:30;0.98;;;0.68;;
16612;SDS011;8419;52.358;9.752;2023-01-08T11:41:19;1.05;;;0.60;;
16612;SDS011;8419;52.358;9.752;2023-01-08T11:44:18;0.50;;;0.40;;
16612;SDS011;8419;52.358;9.752;2023-01-08T11:47:13;1.75;;;0.37;;
16612;SDS011;8419;52.358;9.752;2023-01-08T11:50:13;0.75;;;0.62;;
16612;SDS011;8419;52.358;9.752;2023-01-08T11:53:08;0.95;;;0.65;;
16612;SDS011;8419;52.358;9.752;2023-01-08T11:56:03;2.22;;;0.60;;
16612;SDS011;8419;52.358;9.752;2023-01-08T11:59:03;0.80;;;0.75;;
16612;SDS011;8419;52.358;9.752;2023-01-08T12:02:00;1.55;;;1.17;;
16612;SDS011;8419;52.358;9.752;2023-01-08T12:05:00;1.00;;;1.00;;
16612;SDS011;8419;52.358;9.752;2023-01-08T12:08:10;2.58;;;0.93;;
16612;SDS011;8419;52.358;9.752;2023-01-08T12:11:05;1.08;;;0.60;;
16612;SDS011;8419;52.358;9.752;2023-01-08T12:17:15;2.05;;;0.80;;
16612;SDS011;8419;52.358;9.752;2023-01-08T12:20:16;0.93;;;0.90;;
16612;SDS011;8419;52.358;9.752;2023-01-08T12:23:18;1.95;;;0.88;;
16612;SDS011;8419;52.358;9.752;2023-01-08T12:26:16;1.25;;;0.70;;
16612;SDS011;8419;52.358;9.752;2023-01-08T12:29:07;1.40;;;1.20;;
16612;SDS011;8419;52.358;9.752;2023-01-08T12:32:09;1.95;;;0.50;;
16612;SDS011;8419;52.358;9.752;2023-01-08T12:35:09;1.30;;;0.80;;
16612;SDS011;8419;52.358;9.752;2023-01-08T12:38:00;1.30;;;0.70;;
16612;SDS011;8419;52.358;9.752;2023-01-08T12:40:48;0.75;;;0.70;;
16612;SDS011;8419;52.358;9.752;2023-01-08T12:43:42;2.10;;;1.50;;
16612;SDS011;8419;52.358;9.752;2023-01-08T12:46:35;0.73;;;0.40;;
16612;SDS011;8419;52.358;9.752;2023-01-08T12:49:23;2.37;;;0.60;;
16612;SDS011;8419;52.358;9.752;2023-01-08T12:52:24;1.40;;;0.60;;
16612;SDS011;8419;52.358;9.752;2023-01-08T12:55:24;1.85;;;0.75;;
16612;SDS011;8419;52.358;9.752;2023-01-08T12:58:19;0.70;;;0.50;;
16612;SDS011;8419;52.358;9.752;2023-01-08T13:01:15;1.50;;;0.60;;
16612;SDS011;8419;52.358;9.752;2023-01-08T13:04:12;1.05;;;0.65;;
16612;SDS011;8419;52.358;9.752;2023-01-08T13:07:01;2.87;;;0.80;;
16612;SDS011;8419;52.358;9.752;2023-01-08T13:09:53;1.77;;;0.90;;
16612;SDS011;8419;52.358;9.752;2023-01-08T13:12:40;2.12;;;0.50;;
16612;SDS011;8419;52.358;9.752;2023-01-08T13:15:27;1.85;;;0.90;;
16612;SDS011;8419;52.358;9.752;2023-01-08T13:18:15;2.78;;;0.75;;
16612;SDS011;8419;52.358;9.752;2023-01-08T13:21:03;2.92;;;0.82;;
16612;SDS011;8419;52.358;9.752;2023-01-08T13:23:58;2.78;;;0.73;;
16612;SDS011;8419;52.358;9.752;2023-01-08T13:26:45;3.30;;;0.80;;
16612;SDS011;8419;52.358;9.752;2023-01-08T13:29:40;0.90;;;0.50;;
16612;SDS011;8419;52.358;9.752;2023-01-08T13:32:35;1.48;;;0.88;;
16612;SDS011;8419;52.358;9.752;2023-01-08T13:35:25;0.82;;;0.60;;
16612;SDS011;8419;52.358;9.752;2023-01-08T13:38:13;0.93;;;0.80;;
16612;SDS011;8419;52.358;9.752;2023-01-08T13:41:00;1.42;;;0.60;;
16612;SDS011;8419;52.358;9.752;2023-01-08T13:43:47;3.83;;;1.00;;
16612;SDS011;8419;52.358;9.752;2023-01-08T13:46:36;3.22;;;0.70;;
16612;SDS011;8419;52.358;9.752;2023-01-08T13:49:26;2.53;;;0.70;;
16612;SDS011;8419;52.358;9.752;2023-01-08T13:52:25;1.15;;;0.60;;
16612;SDS011;8419;52.358;9.752;2023-01-08T13:55:15;2.97;;;0.80;;
16612;SDS011;8419;52.358;9.752;2023-01-08T13:58:04;6.45;;;1.02;;
16612;SDS011;8419;52.358;9.752;2023-01-08T14:00:55;4.00;;;1.00;;
16612;SDS011;8419;52.358;9.752;2023-01-08T14:03:44;1.98;;;1.00;;
16612;SDS011;8419;52.358;9.752;2023-01-08T14:06:30;4.05;;;1.00;;
16612;SDS011;8419;52.358;9.752;2023-01-08T14:09:19;1.60;;;0.80;;
16612;SDS011;8419;52.358;9.752;2023-01-08T14:12:07;0.95;;;0.62;;
16612;SDS011;8419;52.358;9.752;2023-01-08T14:14:55;3.70;;;0.90;;
16612;SDS011;8419;52.358;9.752;2023-01-08T14:17:43;0.98;;;0.57;;
16612;SDS011;8419;52.358;9.752;2023-01-08T14:20:30;1.52;;;0.90;;
16612;SDS011;8419;52.358;9.752;2023-01-08T14:23:18;1.58;;;0.62;;
16612;SDS011;8419;52.358;9.752;2023-01-08T14:26:07;1.27;;;0.70;;
16612;SDS011;8419;52.358;9.752;2023-01-08T14:29:12;0.90;;;0.60;;
16612;SDS011;8419;52.358;9.752;2023-01-08T14:31:59;2.15;;;0.60;;
16612;SDS011;8419;52.358;9.752;2023-01-08T14:34:47;0.60;;;0.60;;
16612;SDS011;8419;52.358;9.752;2023-01-08T14:37:34;1.25;;;0.73;;
16612;SDS011;8419;52.358;9.752;2023-01-08T14:40:30;0.70;;;0.60;;
16612;SDS011;8419;52.358;9.752;2023-01-08T14:43:23;0.73;;;0.52;;
16612;SDS011;8419;52.358;9.752;2023-01-08T14:46:11;1.25;;;0.70;;
16612;SDS011;8419;52.358;9.752;2023-01-08T14:49:02;1.05;;;0.70;;
16612;SDS011;8419;52.358;9.752;2023-01-08T14:51:48;0.70;;;0.70;;
16612;SDS011;8419;52.358;9.752;2023-01-08T14:54:34;1.45;;;0.98;;
16612;SDS011;8419;52.358;9.752;2023-01-08T14:57:20;1.70;;;0.75;;
16612;SDS011;8419;52.358;9.752;2023-01-08T15:00:13;1.00;;;0.60;;
16612;SDS011;8419;52.358;9.752;2023-01-08T15:03:01;0.75;;;0.60;;
16612;SDS011;8419;52.358;9.752;2023-01-08T15:05:47;0.80;;;0.62;;
16612;SDS011;8419;52.358;9.752;2023-01-08T15:08:37;0.95;;;0.77;;
16612;SDS011;8419;52.358;9.752;2023-01-08T15:11:24;1.80;;;0.98;;
16612;SDS011;8419;52.358;9.752;2023-01-08T15:14:23;1.23;;;0.80;;
16612;SDS011;8419;52.358;9.752;2023-01-08T15:20:36;3.30;;;1.17;;
16612;SDS011;8419;52.358;9.752;2023-01-08T15:23:26;5.60;;;2.00;;
16612;SDS011;8419;52.358;9.752;2023-01-08T15:26:19;1.50;;;0.90;;
16612;SDS011;8419;52.358;9.752;2023-01-08T15:29:06;1.42;;;0.80;;
16612;SDS011;8419;52.358;9.752;2023-01-08T15:32:07;1.95;;;0.85;;
16612;SDS011;8419;52.358;9.752;2023-01-08T15:34:55;1.58;;;0.80;;
16612;SDS011;8419;52.358;9.752;2023-01-08T15:37:40;1.00;;;0.90;;
16612;SDS011;8419;52.358;9.752;2023-01-08T15:40:26;3.12;;;0.93;;
16612;SDS011;8419;52.358;9.752;2023-01-08T15:43:13;1.85;;;1.20;;
16612;SDS011;8419;52.358;9.752;2023-01-08T15:46:00;2.70;;;0.90;;
16612;SDS011;8419;52.358;9.752;2023-01-08T15:48:48;1.87;;;0.90;;
16612;SDS011;8419;52.358;9.752;2023-01-08T15:51:36;1.90;;;0.93;;
16612;SDS011;8419;52.358;9.752;2023-01-08T15:54:25;1.50;;;1.02;;
16612;SDS011;8419;52.358;9.752;2023-01-08T15:57:12;0.62;;;0.55;;
16612;SDS011;8419;52.358;9.752;2023-01-08T15:59:59;1.98;;;1.10;;
16612;SDS011;8419;52.358;9.752;2023-01-08T16:02:46;1.33;;;0.98;;
16612;SDS011;8419;52.358;9.752;2023-01-08T16:05:33;1.48;;;0.98;;
16612;SDS011;8419;52.358;9.752;2023-01-08T16:08:20;1.52;;;0.93;;
16612;SDS011;8419;52.358;9.752;2023-01-08T16:11:06;2.67;;;1.25;;
16612;SDS011;8419;52.358;9.752;2023-01-08T16:13:51;1.75;;;1.27;;
16612;SDS011;8419;52.358;9.752;2023-01-08T16:16:39;1.55;;;1.25;;
16612;SDS011;8419;52.358;9.752;2023-01-08T16:19:24;3.58;;;0.98;;
16612;SDS011;8419;52.358;9.752;2023-01-08T16:22:10;1.50;;;1.02;;
16612;SDS011;8419;52.358;9.752;2023-01-08T16:24:55;1.05;;;0.90;;
16612;SDS011;8419;52.358;9.752;2023-01-08T16:27:43;2.20;;;1.00;;
16612;SDS011;8419;52.358;9.752;2023-01-08T16:30:29;1.58;;;1.15;;
16612;SDS011;8419;52.358;9.752;2023-01-08T16:33:25;1.67;;;1.30;;
16612;SDS011;8419;52.358;9.752;2023-01-08T16:36:11;2.33;;;1.02;;
16612;SDS011;8419;52.358;9.752;2023-01-08T16:38:58;1.60;;;1.30;;
16612;SDS011;8419;52.358;9.752;2023-01-08T16:41:44;1.50;;;1.17;;
16612;SDS011;8419;52.358;9.752;2023-01-08T16:44:33;2.30;;;1.20;;
16612;SDS011;8419;52.358;9.752;2023-01-08T16:47:20;1.20;;;1.10;;
16612;SDS011;8419;52.358;9.752;2023-01-08T16:50:09;1.92;;;1.20;;
16612;SDS011;8419;52.358;9.752;2023-01-08T16:52:55;1.48;;;1.10;;
16612;SDS011;8419;52.358;9.752;2023-01-08T16:55:40;1.85;;;1.20;;
16612;SDS011;8419;52.358;9.752;2023-01-08T16:58:28;1.20;;;1.10;;
16612;SDS011;8419;52.358;9.752;2023-01-08T17:01:14;1.45;;;1.20;;
16612;SDS011;8419;52.358;9.752;2023-01-08T17:04:01;1.50;;;1.20;;
16612;SDS011;8419;52.358;9.752;2023-01-08T17:06:49;1.33;;;0.90;;
16612;SDS011;8419;52.358;9.752;2023-01-08T17:09:34;1.10;;;0.68;;
16612;SDS011;8419;52.358;9.752;2023-01-08T17:12:20;0.32;;;0.32;;
16612;SDS011;8419;52.358;9.752;2023-01-08T17:15:09;2.05;;;0.30;;